sensor_id;sensor_type;location;lat;lon;timestamp;pressure;altitude;pressure_sealevel;temperature;humidity
24610;BME280;12758;47.890;11.694;2023-04-07T00:01:12;93813.78;;;4.36;88.14
24610;BME280;12758;47.890;11.694;2023-04-07T00:03:38;93807.97;;;4.29;86.83
24610;BME280;12758;47.890;11.694;2023-04-07T00:06:05;93815.50;;;4.27;87.12
24610;BME280;12758;47.890;11.694;2023-04-07T00:08:35;93811.19;;;4.31;87.72
24610;BME280;12758;47.890;11.694;2023-04-07T00:11:01;93810.13;;;4.27;87.13
24610;BME280;12758;47.890;11.694;2023-04-07T00:13:30;93812.19;;;4.35;87.63
24610;BME280;12758;47.890;11.694;2023-04-07T00:15:56;93813.94;;;4.26;89.02
24610;BME280;12758;47.890;11.694;2023-04-07T00:18:25;93809.44;;;4.40;89.81
24610;BME280;12758;47.890;11.694;2023-04-07T00:20:54;93810.50;;;4.39;88.74
24610;BME280;12758;47.890;11.694;2023-04-07T00:23:23;93811.06;;;3.98;92.45
24610;BME280;12758;47.890;11.694;2023-04-07T00:25:50;93812.22;;;4.11;94.11
24610;BME280;12758;47.890;11.694;2023-04-07T00:28:18;93809.31;;;4.07;90.13
24610;BME280;12758;47.890;11.694;2023-04-07T00:30:44;93811.91;;;4.17;90.19
24610;BME280;12758;47.890;11.694;2023-04-07T00:33:14;93809.69;;;4.19;90.41
24610;BME280;12758;47.890;11.694;2023-04-07T00:35:40;93801.16;;;4.17;88.79
24610;BME280;12758;47.890;11.694;2023-04-07T00:38:09;93799.69;;;4.06;89.02
24610;BME280;12758;47.890;11.694;2023-04-07T00:40:38;93806.19;;;4.00;89.68
24610;BME280;12758;47.890;11.694;2023-04-07T00:43:07;93800.34;;;3.98;92.70
24610;BME280;12758;47.890;11.694;2023-04-07T00:45:33;93804.13;;;4.16;91.45
24610;BME280;12758;47.890;11.694;2023-04-07T00:48:04;93797.66;;;3.98;90.52
24610;BME280;12758;47.890;11.694;2023-04-07T00:50:33;93796.72;;;4.08;90.69
24610;BME280;12758;47.890;11.694;2023-04-07T00:52:59;93791.31;;;3.89;90.66
24610;BME280;12758;47.890;11.694;2023-04-07T00:55:26;93790.53;;;4.07;91.73
24610;BME280;12758;47.890;11.694;2023-04-07T00:57:53;93788.31;;;4.14;90.54
24610;BME280;12758;47.890;11.694;2023-04-07T01:00:22;93790.09;;;4.00;90.54
24610;BME280;12758;47.890;11.694;2023-04-07T01:02:52;93782.13;;;3.95;91.56
24610;BME280;12758;47.890;11.694;2023-04-07T01:05:27;93787.16;;;3.78;90.77
24610;BME280;12758;47.890;11.694;2023-04-07T01:07:57;93784.56;;;3.91;92.19
24610;BME280;12758;47.890;11.694;2023-04-07T01:10:34;93777.31;;;3.68;91.03
24610;BME280;12758;47.890;11.694;2023-04-07T01:13:05;93777.06;;;3.88;93.01
24610;BME280;12758;47.890;11.694;2023-04-07T01:15:37;93767.25;;;3.79;90.64
24610;BME280;12758;47.890;11.694;2023-04-07T01:18:07;93777.19;;;3.78;93.04
24610;BME280;12758;47.890;11.694;2023-04-07T01:20:38;93764.09;;;3.53;93.25
24610;BME280;12758;47.890;11.694;2023-04-07T01:23:06;93767.47;;;3.39;95.16
24610;BME280;12758;47.890;11.694;2023-04-07T01:25:52;93772.66;;;3.55;95.16
24610;BME280;12758;47.890;11.694;2023-04-07T01:28:35;93768.03;;;3.60;94.71
24610;BME280;12758;47.890;11.694;2023-04-07T01:31:07;93770.72;;;3.60;96.09
24610;BME280;12758;47.890;11.694;2023-04-07T01:33:34;93770.19;;;3.58;94.52
24610;BME280;12758;47.890;11.694;2023-04-07T01:36:05;93764.88;;;3.53;95.56
24610;BME280;12758;47.890;11.694;2023-04-07T01:38:32;93767.97;;;3.65;94.42
24610;BME280;12758;47.890;11.694;2023-04-07T01:41:01;93768.44;;;3.72;93.87
24610;BME280;12758;47.890;11.694;2023-04-07T01:43:28;93760.69;;;3.47;95.88
24610;BME280;12758;47.890;11.694;2023-04-07T01:45:55;93770.72;;;3.60;95.71
24610;BME280;12758;47.890;11.694;2023-04-07T01:48:23;93762.72;;;3.55;96.09
24610;BME280;12758;47.890;11.694;2023-04-07T01:50:53;93760.34;;;3.54;96.08
24610;BME280;12758;47.890;11.694;2023-04-07T01:53:19;93761.31;;;3.39;97.39
24610;BME280;12758;47.890;11.694;2023-04-07T01:55:48;93764.16;;;3.47;97.61
24610;BME280;12758;47.890;11.694;2023-04-07T01:58:15;93752.22;;;3.59;96.29
24610;BME280;12758;47.890;11.694;2023-04-07T02:00:44;93758.50;;;3.73;96.23
24610;BME280;12758;47.890;11.694;2023-04-07T02:03:13;93747.63;;;3.83;96.42
24610;BME280;12758;47.890;11.694;2023-04-07T02:05:51;93755.06;;;3.67;96.85
24610;BME280;12758;47.890;11.694;2023-04-07T02:08:19;93753.91;;;3.73;97.89
24610;BME280;12758;47.890;11.694;2023-04-07T02:10:49;93752.91;;;3.69;99.07
24610;BME280;12758;47.890;11.694;2023-04-07T02:13:19;93752.34;;;3.72;99.96
24610;BME280;12758;47.890;11.694;2023-04-07T02:15:45;93757.69;;;3.72;100.00
24610;BME280;12758;47.890;11.694;2023-04-07T02:18:13;93759.06;;;3.70;100.00
24610;BME280;12758;47.890;11.694;2023-04-07T02:20:43;93747.75;;;3.73;100.00
24610;BME280;12758;47.890;11.694;2023-04-07T02:23:13;93743.31;;;3.63;100.00
24610;BME280;12758;47.890;11.694;2023-04-07T02:25:39;93749.88;;;3.52;100.00
24610;BME280;12758;47.890;11.694;2023-04-07T02:28:08;93746.09;;;3.53;100.00
24610;BME280;12758;47.890;11.694;2023-04-07T02:30:34;93756.47;;;3.41;100.00
24610;BME280;12758;47.890;11.694;2023-04-07T02:33:03;93751.53;;;3.48;100.00
24610;BME280;12758;47.890;11.694;2023-04-07T02:35:30;93745.53;;;3.56;100.00
24610;BME280;12758;47.890;11.694;2023-04-07T02:37:58;93752.09;;;3.45;100.00
24610;BME280;12758;47.890;11.694;2023-04-07T02:40:25;93736.47;;;3.52;100.00
24610;BME280;12758;47.890;11.694;2023-04-07T02:42:54;93737.72;;;3.36;100.00
24610;BME280;12758;47.890;11.694;2023-04-07T02:45:20;93742.00;;;3.37;100.00
24610;BME280;12758;47.890;11.694;2023-04-07T02:47:50;93747.31;;;3.42;100.00
24610;BME280;12758;47.890;11.694;2023-04-07T02:50:16;93738.41;;;3.46;100.00
24610;BME280;12758;47.890;11.694;2023-04-07T02:52:45;93749.94;;;3.47;100.00
24610;BME280;12758;47.890;11.694;2023-04-07T02:55:14;93740.69;;;3.58;100.00
24610;BME280;12758;47.890;11.694;2023-04-07T02:57:44;93750.41;;;3.54;100.00
24610;BME280;12758;47.890;11.694;2023-04-07T03:00:11;93752.44;;;3.62;100.00
24610;BME280;12758;47.890;11.694;2023-04-07T03:02:40;93744.47;;;3.57;100.00
24610;BME280;12758;47.890;11.694;2023-04-07T03:05:09;93744.31;;;3.67;100.00
24610;BME280;12758;47.890;11.694;2023-04-07T03:07:38;93738.66;;;3.50;100.00
24610;BME280;12758;47.890;11.694;2023-04-07T03:10:05;93738.69;;;3.45;100.00
24610;BME280;12758;47.890;11.694;2023-04-07T03:12:34;93737.03;;;3.49;100.00
24610;BME280;12758;47.890;11.694;2023-04-07T03:15:05;93731.31;;;3.56;100.00
24610;BME280;12758;47.890;11.694;2023-04-07T03:17:32;93728.81;;;3.64;100.00
24610;BME280;12758;47.890;11.694;2023-04-07T03:19:58;93732.09;;;3.56;100.00
24610;BME280;12758;47.890;11.694;2023-04-07T03:22:27;93726.16;;;3.59;100.00
24610;BME280;12758;47.890;11.694;2023-04-07T03:24:55;93727.78;;;3.60;100.00
24610;BME280;12758;47.890;11.694;2023-04-07T03:27:21;93730.81;;;3.54;100.00
24610;BME280;12758;47.890;11.694;2023-04-07T03:29:47;93730.69;;;3.40;100.00
24610;BME280;12758;47.890;11.694;2023-04-07T03:32:19;93730.06;;;3.48;100.00
24610;BME280;12758;47.890;11.694;2023-04-07T03:34:48;93728.50;;;3.47;100.00
24610;BME280;12758;47.890;11.694;2023-04-07T03:37:14;93728.34;;;3.57;100.00
24610;BME280;12758;47.890;11.694;2023-04-07T03:39:40;93721.06;;;3.63;100.00
24610;BME280;12758;47.890;11.694;2023-04-07T03:42:06;93722.28;;;3.70;100.00
24610;BME280;12758;47.890;11.694;2023-04-07T03:44:35;93722.63;;;3.64;100.00
24610;BME280;12758;47.890;11.694;2023-04-07T03:47:01;93720.69;;;3.69;100.00
24610;BME280;12758;47.890;11.694;2023-04-07T03:49:31;93716.78;;;3.81;100.00
24610;BME280;12758;47.890;11.694;2023-04-07T03:51:57;93720.91;;;3.73;100.00
24610;BME280;12758;47.890;11.694;2023-04-07T03:54:26;93711.13;;;3.82;100.00
24610;BME280;12758;47.890;11.694;2023-04-07T03:56:52;93715.19;;;3.80;100.00
24610;BME280;12758;47.890;11.694;2023-04-07T03:59:21;93713.53;;;3.84;100.00
24610;BME280;12758;47.890;11.694;2023-04-07T04:01:48;93712.94;;;3.87;100.00
24610;BME280;12758;47.890;11.694;2023-04-07T04:04:16;93716.63;;;3.91;100.00
24610;BME280;12758;47.890;11.694;2023-04-07T04:06:46;93706.94;;;3.95;100.00
24610;BME280;12758;47.890;11.694;2023-04-07T04:09:15;93707.16;;;3.99;100.00
24610;BME280;12758;47.890;11.694;2023-04-07T04:11:41;93703.59;;;4.03;100.00
24610;BME280;12758;47.890;11.694;2023-04-07T04:14:10;93709.47;;;4.05;100.00
24610;BME280;12758;47.890;11.694;2023-04-07T04:16:39;93702.56;;;3.99;100.00
24610;BME280;12758;47.890;11.694;2023-04-07T04:19:05;93705.09;;;3.90;100.00
24610;BME280;12758;47.890;11.694;2023-04-07T04:21:31;93700.31;;;3.87;100.00
24610;BME280;12758;47.890;11.694;2023-04-07T04:24:01;93705.38;;;3.70;100.00
24610;BME280;12758;47.890;11.694;2023-04-07T04:26:31;93699.94;;;3.94;100.00
24610;BME280;12758;47.890;11.694;2023-04-07T04:28:57;93700.03;;;3.70;100.00
24610;BME280;12758;47.890;11.694;2023-04-07T04:31:26;93691.81;;;3.61;100.00
24610;BME280;12758;47.890;11.694;2023-04-07T04:33:52;93697.19;;;3.61;100.00
24610;BME280;12758;47.890;11.694;2023-04-07T04:36:21;93697.31;;;3.51;100.00
24610;BME280;12758;47.890;11.694;2023-04-07T04:38:47;93688.59;;;3.59;100.00
24610;BME280;12758;47.890;11.694;2023-04-07T04:41:17;93697.09;;;3.47;100.00
24610;BME280;12758;47.890;11.694;2023-04-07T04:43:43;93690.63;;;3.48;100.00
24610;BME280;12758;47.890;11.694;2023-04-07T04:46:12;93692.97;;;3.55;100.00
24610;BME280;12758;47.890;11.694;2023-04-07T04:48:38;93692.50;;;3.48;100.00
24610;BME280;12758;47.890;11.694;2023-04-07T04:51:07;93704.25;;;3.52;100.00
24610;BME280;12758;47.890;11.694;2023-04-07T04:53:33;93695.19;;;3.48;100.00
24610;BME280;12758;47.890;11.694;2023-04-07T04:56:02;93697.31;;;3.51;100.00
24610;BME280;12758;47.890;11.694;2023-04-07T04:58:29;93697.44;;;3.41;100.00
24610;BME280;12758;47.890;11.694;2023-04-07T05:00:55;93697.09;;;3.47;100.00
24610;BME280;12758;47.890;11.694;2023-04-07T05:03:22;93697.31;;;3.51;100.00
24610;BME280;12758;47.890;11.694;2023-04-07T05:05:52;93695.72;;;3.50;100.00
24610;BME280;12758;47.890;11.694;2023-04-07T05:08:21;93699.41;;;3.54;100.00
24610;BME280;12758;47.890;11.694;2023-04-07T05:10:47;93694.28;;;3.58;100.00
24610;BME280;12758;47.890;11.694;2023-04-07T05:13:13;93692.53;;;3.67;100.00
24610;BME280;12758;47.890;11.694;2023-04-07T05:15:43;93688.59;;;3.59;100.00
24610;BME280;12758;47.890;11.694;2023-04-07T05:18:12;93681.06;;;3.61;100.00
24610;BME280;12758;47.890;11.694;2023-04-07T05:20:38;93681.28;;;3.65;100.00
24610;BME280;12758;47.890;11.694;2023-04-07T05:23:04;93684.63;;;3.76;100.00
24610;BME280;12758;47.890;11.694;2023-04-07T05:25:33;93686.09;;;3.87;100.00
24610;BME280;12758;47.890;11.694;2023-04-07T05:28:02;93688.25;;;3.85;100.00
24610;BME280;12758;47.890;11.694;2023-04-07T05:30:28;93687.09;;;3.91;100.00
24610;BME280;12758;47.890;11.694;2023-04-07T05:32:58;93686.03;;;3.92;100.00
24610;BME280;12758;47.890;11.694;2023-04-07T05:35:24;93685.78;;;3.88;100.00
24610;BME280;12758;47.890;11.694;2023-04-07T05:37:52;93691.09;;;3.74;100.00
24610;BME280;12758;47.890;11.694;2023-04-07T05:40:19;93689.44;;;3.60;100.00
24610;BME280;12758;47.890;11.694;2023-04-07T05:42:47;93687.00;;;3.58;100.00
24610;BME280;12758;47.890;11.694;2023-04-07T05:45:13;93680.81;;;3.63;100.00
24610;BME280;12758;47.890;11.694;2023-04-07T05:47:43;93687.19;;;3.86;100.00
24610;BME280;12758;47.890;11.694;2023-04-07T05:50:12;93689.78;;;3.91;100.00
24610;BME280;12758;47.890;11.694;2023-04-07T05:52:41;93677.97;;;3.92;100.00
24610;BME280;12758;47.890;11.694;2023-04-07T05:55:08;93690.16;;;3.84;100.00
24610;BME280;12758;47.890;11.694;2023-04-07T05:57:37;93686.72;;;3.79;100.00
24610;BME280;12758;47.890;11.694;2023-04-07T06:00:07;93686.88;;;3.68;100.00
24610;BME280;12758;47.890;11.694;2023-04-07T06:02:37;93689.25;;;3.51;100.00
24610;BME280;12758;47.890;11.694;2023-04-07T06:05:04;93679.91;;;3.48;100.00
24610;BME280;12758;47.890;11.694;2023-04-07T06:07:34;93679.50;;;3.36;100.00
24610;BME280;12758;47.890;11.694;2023-04-07T06:10:00;93678.75;;;3.31;100.00
24610;BME280;12758;47.890;11.694;2023-04-07T06:12:29;93678.72;;;3.36;100.00
24610;BME280;12758;47.890;11.694;2023-04-07T06:14:55;93677.56;;;3.42;100.00
24610;BME280;12758;47.890;11.694;2023-04-07T06:17:24;93682.78;;;3.52;100.00
24610;BME280;12758;47.890;11.694;2023-04-07T06:19:56;93684.91;;;3.55;100.00
24610;BME280;12758;47.890;11.694;2023-04-07T06:22:22;93674.13;;;3.60;100.00
24610;BME280;12758;47.890;11.694;2023-04-07T06:24:48;93674.41;;;3.78;100.00
24610;BME280;12758;47.890;11.694;2023-04-07T06:27:15;93679.19;;;3.81;100.00
24610;BME280;12758;47.890;11.694;2023-04-07T06:29:44;93676.00;;;3.79;100.00
24610;BME280;12758;47.890;11.694;2023-04-07T06:32:10;93676.44;;;3.86;100.00
24610;BME280;12758;47.890;11.694;2023-04-07T06:34:40;93666.34;;;3.78;100.00
24610;BME280;12758;47.890;11.694;2023-04-07T06:37:06;93665.50;;;3.82;100.00
24610;BME280;12758;47.890;11.694;2023-04-07T06:39:32;93666.28;;;3.83;100.00
24610;BME280;12758;47.890;11.694;2023-04-07T06:41:59;93661.56;;;3.74;100.00
24610;BME280;12758;47.890;11.694;2023-04-07T06:44:29;93661.88;;;3.73;100.00
24610;BME280;12758;47.890;11.694;2023-04-07T06:46:55;93661.50;;;3.80;100.00
24610;BME280;12758;47.890;11.694;2023-04-07T06:49:24;93654.19;;;3.85;100.00
24610;BME280;12758;47.890;11.694;2023-04-07T06:51:53;93663.53;;;3.88;100.00
24610;BME280;12758;47.890;11.694;2023-04-07T06:54:23;93668.09;;;3.87;100.00
24610;BME280;12758;47.890;11.694;2023-04-07T06:56:49;93655.41;;;3.93;100.00
24610;BME280;12758;47.890;11.694;2023-04-07T06:59:19;93657.56;;;3.91;100.00
24610;BME280;12758;47.890;11.694;2023-04-07T07:01:48;93659.69;;;3.94;100.00
24610;BME280;12758;47.890;11.694;2023-04-07T07:04:14;93653.72;;;3.97;100.00
24610;BME280;12758;47.890;11.694;2023-04-07T07:06:40;93651.25;;;4.01;100.00
24610;BME280;12758;47.890;11.694;2023-04-07T07:09:06;93653.66;;;4.02;100.00
24610;BME280;12758;47.890;11.694;2023-04-07T07:11:35;93649.28;;;4.06;100.00
24610;BME280;12758;47.890;11.694;2023-04-07T07:14:01;93651.59;;;4.13;100.00
24610;BME280;12758;47.890;11.694;2023-04-07T07:16:31;93640.41;;;4.25;100.00
24610;BME280;12758;47.890;11.694;2023-04-07T07:18:57;93650.00;;;4.31;100.00
24610;BME280;12758;47.890;11.694;2023-04-07T07:21:26;93645.03;;;4.38;100.00
24610;BME280;12758;47.890;11.694;2023-04-07T07:23:52;93654.97;;;4.37;100.00
24610;BME280;12758;47.890;11.694;2023-04-07T07:26:21;93652.00;;;4.39;100.00
24610;BME280;12758;47.890;11.694;2023-04-07T07:28:47;93658.16;;;4.39;100.00
24610;BME280;12758;47.890;11.694;2023-04-07T07:31:16;93662.66;;;4.44;100.00
24610;BME280;12758;47.890;11.694;2023-04-07T07:33:43;93656.69;;;4.47;100.00
24610;BME280;12758;47.890;11.694;2023-04-07T07:36:13;93659.81;;;4.54;100.00
24610;BME280;12758;47.890;11.694;2023-04-07T07:38:39;93656.00;;;4.55;100.00
24610;BME280;12758;47.890;11.694;2023-04-07T07:41:08;93655.41;;;4.58;100.00
24610;BME280;12758;47.890;11.694;2023-04-07T07:43:34;93655.16;;;4.60;100.00
24610;BME280;12758;47.890;11.694;2023-04-07T07:46:04;93663.00;;;4.56;100.00
24610;BME280;12758;47.890;11.694;2023-04-07T07:48:30;93656.00;;;4.55;100.00
24610;BME280;12758;47.890;11.694;2023-04-07T07:51:00;93655.25;;;4.68;100.00
24610;BME280;12758;47.890;11.694;2023-04-07T07:53:26;93660.53;;;4.74;100.00
24610;BME280;12758;47.890;11.694;2023-04-07T07:55:52;93663.22;;;4.74;100.00
24610;BME280;12758;47.890;11.694;2023-04-07T07:58:20;93655.47;;;4.72;100.00
24610;BME280;12758;47.890;11.694;2023-04-07T08:00:49;93655.16;;;4.74;100.00
24610;BME280;12758;47.890;11.694;2023-04-07T08:03:18;93654.50;;;4.82;100.00
24610;BME280;12758;47.890;11.694;2023-04-07T08:05:47;93654.88;;;4.89;100.00
24610;BME280;12758;47.890;11.694;2023-04-07T08:08:14;93652.47;;;4.87;100.00
24610;BME280;12758;47.890;11.694;2023-04-07T08:10:43;93653.69;;;4.95;100.00
24610;BME280;12758;47.890;11.694;2023-04-07T08:13:12;93645.31;;;4.83;100.00
24610;BME280;12758;47.890;11.694;2023-04-07T08:15:38;93650.31;;;4.89;100.00
24610;BME280;12758;47.890;11.694;2023-04-07T08:18:04;93638.56;;;4.99;100.00
24610;BME280;12758;47.890;11.694;2023-04-07T08:20:31;93638.25;;;5.14;100.00
24610;BME280;12758;47.890;11.694;2023-04-07T08:23:00;93638.47;;;5.18;100.00
24610;BME280;12758;47.890;11.694;2023-04-07T08:25:27;93633.88;;;5.19;100.00
24610;BME280;12758;47.890;11.694;2023-04-07T08:27:57;93638.38;;;5.23;100.00
24610;BME280;12758;47.890;11.694;2023-04-07T08:30:23;93633.56;;;5.34;100.00
24610;BME280;12758;47.890;11.694;2023-04-07T08:32:52;93640.31;;;5.45;100.00
24610;BME280;12758;47.890;11.694;2023-04-07T08:35:18;93634.56;;;5.38;100.00
24610;BME280;12758;47.890;11.694;2023-04-07T08:37:47;93638.97;;;5.34;100.00
24610;BME280;12758;47.890;11.694;2023-04-07T08:40:14;93639.75;;;5.21;100.00
24610;BME280;12758;47.890;11.694;2023-04-07T08:42:46;93639.53;;;5.45;100.00
24610;BME280;12758;47.890;11.694;2023-04-07T08:45:12;93643.91;;;5.54;100.00
24610;BME280;12758;47.890;11.694;2023-04-07T08:47:42;93640.88;;;5.70;100.00
24610;BME280;12758;47.890;11.694;2023-04-07T08:50:09;93641.63;;;5.84;100.00
24610;BME280;12758;47.890;11.694;2023-04-07T08:52:40;93635.03;;;5.90;100.00
24610;BME280;12758;47.890;11.694;2023-04-07T08:55:08;93632.91;;;5.65;100.00
24610;BME280;12758;47.890;11.694;2023-04-07T08:57:37;93631.56;;;5.53;100.00
24610;BME280;12758;47.890;11.694;2023-04-07T09:00:05;93639.09;;;5.79;100.00
24610;BME280;12758;47.890;11.694;2023-04-07T09:02:35;93630.72;;;5.67;100.00
24610;BME280;12758;47.890;11.694;2023-04-07T09:05:03;93633.56;;;5.34;100.00
24610;BME280;12758;47.890;11.694;2023-04-07T09:07:30;93630.16;;;5.42;100.00
24610;BME280;12758;47.890;11.694;2023-04-07T09:09:57;93625.00;;;5.32;100.00
24610;BME280;12758;47.890;11.694;2023-04-07T09:12:26;93628.78;;;5.31;100.00
24610;BME280;12758;47.890;11.694;2023-04-07T09:14:56;93628.78;;;5.31;100.00
24610;BME280;12758;47.890;11.694;2023-04-07T09:17:23;93626.97;;;5.26;100.00
24610;BME280;12758;47.890;11.694;2023-04-07T09:19:49;93624.41;;;5.35;100.00
24610;BME280;12758;47.890;11.694;2023-04-07T09:22:32;93625.19;;;5.49;100.00
24610;BME280;12758;47.890;11.694;2023-04-07T09:25:09;93626.31;;;5.71;100.00
24610;BME280;12758;47.890;11.694;2023-04-07T09:27:35;93627.94;;;5.72;100.00
24610;BME280;12758;47.890;11.694;2023-04-07T09:30:11;93621.97;;;5.61;100.00
24610;BME280;12758;47.890;11.694;2023-04-07T09:32:40;93619.72;;;5.91;100.00
24610;BME280;12758;47.890;11.694;2023-04-07T09:35:09;93625.72;;;5.74;100.00
24610;BME280;12758;47.890;11.694;2023-04-07T09:37:36;93620.41;;;6.19;100.00
24610;BME280;12758;47.890;11.694;2023-04-07T09:40:06;93619.91;;;5.94;100.00
24610;BME280;12758;47.890;11.694;2023-04-07T09:42:32;93609.63;;;6.19;100.00
24610;BME280;12758;47.890;11.694;2023-04-07T09:45:04;93612.47;;;6.14;100.00
24610;BME280;12758;47.890;11.694;2023-04-07T09:47:31;93603.50;;;6.04;100.00
24610;BME280;12758;47.890;11.694;2023-04-07T09:50:01;93608.13;;;6.04;100.00
24610;BME280;12758;47.890;11.694;2023-04-07T09:52:49;93597.56;;;6.70;100.00
24610;BME280;12758;47.890;11.694;2023-04-07T09:55:20;93597.50;;;6.52;100.00
24610;BME280;12758;47.890;11.694;2023-04-07T09:57:46;93607.28;;;6.48;100.00
24610;BME280;12758;47.890;11.694;2023-04-07T10:00:16;93596.47;;;6.71;100.00
24610;BME280;12758;47.890;11.694;2023-04-07T10:02:43;93601.25;;;6.51;100.00
24610;BME280;12758;47.890;11.694;2023-04-07T10:05:13;93607.09;;;6.45;100.00
24610;BME280;12758;47.890;11.694;2023-04-07T10:07:42;93596.59;;;6.66;100.00
24610;BME280;12758;47.890;11.694;2023-04-07T10:10:11;93597.97;;;6.32;100.00
24610;BME280;12758;47.890;11.694;2023-04-07T10:12:37;93593.88;;;6.12;100.00
24610;BME280;12758;47.890;11.694;2023-04-07T10:15:07;93602.72;;;6.26;100.00
24610;BME280;12758;47.890;11.694;2023-04-07T10:17:36;93593.69;;;6.53;100.00
24610;BME280;12758;47.890;11.694;2023-04-07T10:20:05;93595.88;;;6.20;100.00
24610;BME280;12758;47.890;11.694;2023-04-07T10:22:32;93591.38;;;6.38;100.00
24610;BME280;12758;47.890;11.694;2023-04-07T10:25:04;93591.25;;;6.74;100.00
24610;BME280;12758;47.890;11.694;2023-04-07T10:27:42;93587.06;;;6.60;100.00
24610;BME280;12758;47.890;11.694;2023-04-07T10:30:17;93593.66;;;7.16;100.00
24610;BME280;12758;47.890;11.694;2023-04-07T10:32:47;93589.88;;;6.54;100.00
24610;BME280;12758;47.890;11.694;2023-04-07T10:35:17;93588.03;;;6.33;100.00
24610;BME280;12758;47.890;11.694;2023-04-07T10:38:11;93583.41;;;6.33;100.00
24610;BME280;12758;47.890;11.694;2023-04-07T10:40:39;93581.59;;;6.51;100.00
24610;BME280;12758;47.890;11.694;2023-04-07T10:43:06;93576.81;;;6.39;100.00
24610;BME280;12758;47.890;11.694;2023-04-07T10:45:53;93575.56;;;6.45;100.00
24610;BME280;12758;47.890;11.694;2023-04-07T10:48:25;93579.28;;;6.58;100.00
24610;BME280;12758;47.890;11.694;2023-04-07T10:51:21;93578.84;;;6.65;100.00
24610;BME280;12758;47.890;11.694;2023-04-07T10:54:18;93581.88;;;6.72;100.00
24610;BME280;12758;47.890;11.694;2023-04-07T10:57:09;93578.41;;;6.80;100.00
24610;BME280;12758;47.890;11.694;2023-04-07T10:59:40;93575.84;;;7.15;100.00
24610;BME280;12758;47.890;11.694;2023-04-07T11:02:30;93563.28;;;6.62;100.00
24610;BME280;12758;47.890;11.694;2023-04-07T11:04:57;93575.47;;;6.59;100.00
24610;BME280;12758;47.890;11.694;2023-04-07T11:07:42;93577.31;;;6.50;100.00
24610;BME280;12758;47.890;11.694;2023-04-07T11:10:11;93572.25;;;7.54;100.00
24610;BME280;12758;47.890;11.694;2023-04-07T11:12:40;93577.53;;;7.68;100.00
24610;BME280;12758;47.890;11.694;2023-04-07T11:15:17;93583.91;;;8.07;100.00
24610;BME280;12758;47.890;11.694;2023-04-07T11:17:46;93572.16;;;7.68;100.00
24610;BME280;12758;47.890;11.694;2023-04-07T11:20:40;93570.84;;;7.57;100.00
24610;BME280;12758;47.890;11.694;2023-04-07T11:23:09;93565.44;;;7.57;100.00
24610;BME280;12758;47.890;11.694;2023-04-07T11:25:37;93561.75;;;7.27;100.00
24610;BME280;12758;47.890;11.694;2023-04-07T11:28:09;93566.50;;;7.21;100.00
24610;BME280;12758;47.890;11.694;2023-04-07T11:30:35;93561.53;;;7.06;100.00
24610;BME280;12758;47.890;11.694;2023-04-07T11:33:05;93560.84;;;7.49;100.00
24610;BME280;12758;47.890;11.694;2023-04-07T11:35:32;93560.06;;;7.74;100.00
24610;BME280;12758;47.890;11.694;2023-04-07T11:37:58;93556.06;;;8.41;100.00
24610;BME280;12758;47.890;11.694;2023-04-07T11:40:31;93554.81;;;7.69;100.00
24610;BME280;12758;47.890;11.694;2023-04-07T11:43:04;93554.31;;;7.50;100.00
24610;BME280;12758;47.890;11.694;2023-04-07T11:45:40;93558.72;;;7.28;100.00
24610;BME280;12758;47.890;11.694;2023-04-07T11:48:25;93557.28;;;8.61;100.00
24610;BME280;12758;47.890;11.694;2023-04-07T11:50:51;93553.94;;;8.64;97.98
24610;BME280;12758;47.890;11.694;2023-04-07T11:53:27;93554.44;;;8.57;96.39
24610;BME280;12758;47.890;11.694;2023-04-07T11:56:01;93549.28;;;7.74;100.00
24610;BME280;12758;47.890;11.694;2023-04-07T11:58:31;93548.22;;;8.57;100.00
24610;BME280;12758;47.890;11.694;2023-04-07T12:00:58;93537.41;;;8.57;100.00
24610;BME280;12758;47.890;11.694;2023-04-07T12:03:31;93549.06;;;8.96;100.00
24610;BME280;12758;47.890;11.694;2023-04-07T12:05:57;93549.13;;;9.08;99.20
24610;BME280;12758;47.890;11.694;2023-04-07T12:08:40;93540.09;;;9.33;100.00
24610;BME280;12758;47.890;11.694;2023-04-07T12:11:09;93552.69;;;9.59;94.74
24610;BME280;12758;47.890;11.694;2023-04-07T12:13:39;93546.16;;;9.01;99.58
24610;BME280;12758;47.890;11.694;2023-04-07T12:16:05;93554.75;;;9.32;100.00
24610;BME280;12758;47.890;11.694;2023-04-07T12:18:34;93549.47;;;9.06;100.00
24610;BME280;12758;47.890;11.694;2023-04-07T12:21:04;93555.31;;;9.17;100.00
24610;BME280;12758;47.890;11.694;2023-04-07T12:23:30;93556.34;;;9.04;100.00
24610;BME280;12758;47.890;11.694;2023-04-07T12:25:56;93557.84;;;8.84;100.00
24610;BME280;12758;47.890;11.694;2023-04-07T12:28:25;93564.34;;;8.92;100.00
24610;BME280;12758;47.890;11.694;2023-04-07T12:30:55;93568.25;;;8.73;100.00
24610;BME280;12758;47.890;11.694;2023-04-07T12:33:21;93568.38;;;8.77;100.00
24610;BME280;12758;47.890;11.694;2023-04-07T12:35:47;93560.34;;;8.33;100.00
24610;BME280;12758;47.890;11.694;2023-04-07T12:38:13;93550.25;;;8.69;100.00
24610;BME280;12758;47.890;11.694;2023-04-07T12:40:40;93562.50;;;8.66;100.00
24610;BME280;12758;47.890;11.694;2023-04-07T12:43:06;93555.44;;;8.82;96.29
24610;BME280;12758;47.890;11.694;2023-04-07T12:45:35;93552.00;;;8.73;97.51
24610;BME280;12758;47.890;11.694;2023-04-07T12:48:02;93559.09;;;8.39;99.94
24610;BME280;12758;47.890;11.694;2023-04-07T12:50:31;93562.38;;;8.62;97.95
24610;BME280;12758;47.890;11.694;2023-04-07T12:52:57;93556.75;;;8.76;97.59
24610;BME280;12758;47.890;11.694;2023-04-07T12:55:26;93558.66;;;8.84;98.19
24610;BME280;12758;47.890;11.694;2023-04-07T12:57:52;93556.50;;;8.60;100.00
24610;BME280;12758;47.890;11.694;2023-04-07T13:00:23;93566.94;;;8.79;99.70
24610;BME280;12758;47.890;11.694;2023-04-07T13:02:52;93561.28;;;8.63;99.82